Time;durP1;ratioP1;P1;durP2;ratioP2;P2;SDS_P1;SDS_P2;PMS_P1;PMS_P2;Temp;Humidity;BMP_temperature;BMP_pressure;BME280_temperature;BME280_humidity;BME280_pressure;Samples;Min_cycle;Max_cycle;Signal;HPM_P1;HPM_P2
2023/04/20 00:00:10;;;;;;;16.17;5.75;;;17.20;56.50;;;;;;7383455;19;20070;-72
2023/04/20 00:02:38;;;;;;;17.40;5.53;;;17.20;56.10;;;;;;7381475;19;20003;-72
2023/04/20 00:05:08;;;;;;;11.02;5.60;;;17.20;56.00;;;;;;7406118;19;20010;-71
2023/04/20 00:07:40;;;;;;;11.23;5.30;;;16.90;55.40;;;;;;7384142;19;20003;-72
2023/04/20 00:10:10;;;;;;;10.07;5.43;;;17.00;55.80;;;;;;7383624;19;20007;-72
2023/04/20 00:12:39;;;;;;;25.95;5.82;;;17.00;55.70;;;;;;7381832;19;20066;-72
2023/04/20 00:15:09;;;;;;;11.82;5.28;;;16.80;55.00;;;;;;7381189;19;20006;-72
2023/04/20 00:17:39;;;;;;;11.30;5.40;;;16.80;55.60;;;;;;7382822;19;20014;-71
2023/04/20 00:20:09;;;;;;;14.70;5.78;;;16.80;55.40;;;;;;7401804;19;20010;-72
2023/04/20 00:22:40;;;;;;;12.63;6.00;;;16.80;55.50;;;;;;7381293;19;20208;-71
2023/04/20 00:25:10;;;;;;;10.18;5.50;;;16.70;55.00;;;;;;7393564;19;20019;-71
2023/04/20 00:27:39;;;;;;;9.68;5.38;;;16.70;55.00;;;;;;7392967;19;20003;-72
2023/04/20 00:30:09;;;;;;;17.20;6.38;;;16.70;54.80;;;;;;7385166;19;20003;-72
2023/04/20 00:32:38;;;;;;;10.80;6.15;;;16.70;55.10;;;;;;7383076;19;20040;-72
2023/04/20 00:35:07;;;;;;;12.40;5.68;;;16.70;55.10;;;;;;7403963;19;20014;-72
2023/04/20 00:37:36;;;;;;;14.02;5.40;;;16.70;55.20;;;;;;7384590;19;20027;-72
2023/04/20 00:40:09;;;;;;;12.73;5.72;;;16.70;55.70;;;;;;7380827;19;20019;-72
2023/04/20 00:42:39;;;;;;;13.23;5.88;;;16.70;55.40;;;;;;7381218;19;20010;-72
2023/04/20 00:45:09;;;;;;;10.95;5.35;;;16.60;54.90;;;;;;7380267;19;20062;-72
2023/04/20 00:47:37;;;;;;;14.40;5.50;;;16.60;55.50;;;;;;7381849;19;20020;-72
2023/04/20 00:50:08;;;;;;;12.55;5.18;;;16.70;55.30;;;;;;7400915;19;20011;-72
2023/04/20 00:52:37;;;;;;;12.52;5.93;;;16.50;55.10;;;;;;7380758;19;20023;-72
2023/04/20 00:55:09;;;;;;;15.30;5.80;;;16.40;55.10;;;;;;7380962;19;20240;-72
2023/04/20 00:57:38;;;;;;;14.27;5.95;;;16.50;55.60;;;;;;7383192;19;20006;-72
2023/04/20 01:00:09;;;;;;;19.80;5.60;;;16.50;55.60;;;;;;7381643;19;20006;-72
2023/04/20 01:02:38;;;;;;;12.55;5.57;;;16.40;55.40;;;;;;7380804;19;20259;-73
2023/04/20 01:05:08;;;;;;;11.57;5.78;;;16.40;55.00;;;;;;7400992;19;20010;-73
2023/04/20 01:07:36;;;;;;;15.30;6.00;;;16.40;55.40;;;;;;7380427;19;20007;-73
2023/04/20 01:10:09;;;;;;;11.10;5.40;;;16.30;55.70;;;;;;7380531;19;20748;-71
2023/04/20 01:12:38;;;;;;;20.20;5.68;;;16.30;56.10;;;;;;7380357;19;20003;-72
2023/04/20 01:15:08;;;;;;;11.38;5.15;;;16.20;56.00;;;;;;7380979;19;20374;-72
2023/04/20 01:17:38;;;;;;;9.02;5.30;;;16.30;56.40;;;;;;7382447;19;20006;-73
2023/04/20 01:20:10;;;;;;;13.23;5.22;;;16.30;56.10;;;;;;7402543;19;20038;-74
2023/04/20 01:22:47;;;;;;;12.35;5.95;;;16.40;56.50;;;;;;7380170;19;19999;-73
2023/04/20 01:25:16;;;;;;;12.25;5.28;;;16.30;56.60;;;;;;7380176;19;20025;-73
2023/04/20 01:27:45;;;;;;;12.90;5.55;;;16.40;56.70;;;;;;7380080;19;20016;-73
2023/04/20 01:30:16;;;;;;;14.00;4.88;;;16.40;56.30;;;;;;7381228;19;20028;-73
2023/04/20 01:32:45;;;;;;;11.30;4.90;;;16.40;56.50;;;;;;7379600;19;20011;-73
2023/04/20 01:35:14;;;;;;;10.90;4.88;;;16.40;57.00;;;;;;7384966;19;20013;-74
2023/04/20 01:37:43;;;;;;;9.18;5.40;;;16.30;56.80;;;;;;7399652;19;20302;-73
2023/04/20 01:40:15;;;;;;;11.43;4.90;;;16.30;56.80;;;;;;7379299;19;20019;-73
2023/04/20 01:42:44;;;;;;;20.70;5.90;;;16.20;57.00;;;;;;7379249;19;20007;-72
2023/04/20 01:45:13;;;;;;;18.15;5.72;;;16.20;57.10;;;;;;7379939;19;20010;-73
2023/04/20 01:47:42;;;;;;;12.40;6.38;;;16.10;57.00;;;;;;7380476;19;19999;-73
2023/04/20 01:50:11;;;;;;;12.80;5.93;;;16.00;56.70;;;;;;7400761;19;20027;-73
2023/04/20 01:52:43;;;;;;;16.70;6.07;;;16.00;57.10;;;;;;7379252;19;20006;-72
2023/04/20 01:55:11;;;;;;;;;;;15.90;57.30;;;;;;7379960;19;20250;-73
2023/04/20 01:57:43;;;;;;;12.63;5.82;;;15.90;57.50;;;;;;7379271;19;20298;-73
2023/04/20 02:00:13;;;;;;;11.63;5.03;;;15.80;57.40;;;;;;7379316;19;20010;-73
2023/04/20 02:02:42;;;;;;;18.60;5.25;;;15.80;57.20;;;;;;7378988;19;20007;-74
2023/04/20 02:05:11;;;;;;;15.82;6.05;;;15.80;57.70;;;;;;7401493;19;20301;-74
2023/04/20 02:07:42;;;;;;;13.55;5.47;;;15.70;57.20;;;;;;7380303;19;20015;-74
2023/04/20 02:10:12;;;;;;;11.68;5.28;;;15.60;57.50;;;;;;7380184;19;20019;-73
2023/04/20 02:12:44;;;;;;;10.10;5.47;;;15.60;57.70;;;;;;7379283;19;20014;-73
2023/04/20 02:15:13;;;;;;;15.85;5.45;;;15.60;57.60;;;;;;7380671;19;19998;-72
2023/04/20 02:17:42;;;;;;;14.15;5.15;;;15.60;58.00;;;;;;7379268;19;20077;-72
2023/04/20 02:20:13;;;;;;;12.02;5.20;;;15.60;58.20;;;;;;7400210;19;20015;-73
2023/04/20 02:22:42;;;;;;;10.93;5.23;;;15.60;58.10;;;;;;7378237;19;20003;-73
2023/04/20 02:25:11;;;;;;;9.55;5.22;;;15.70;57.90;;;;;;7378556;19;20070;-73
2023/04/20 02:27:43;;;;;;;10.00;5.60;;;15.60;57.90;;;;;;7378860;19;20024;-72
2023/04/20 02:30:12;;;;;;;10.93;4.93;;;15.60;57.40;;;;;;7382131;19;20024;-72
2023/04/20 02:32:41;;;;;;;12.70;5.15;;;15.60;57.90;;;;;;7379842;19;20051;-71
2023/04/20 02:35:11;;;;;;;10.23;5.40;;;15.60;58.10;;;;;;7400187;19;20011;-72
2023/04/20 02:37:39;;;;;;;13.55;5.35;;;15.60;58.30;;;;;;7377636;19;20020;-72
2023/04/20 02:40:10;;;;;;;25.15;5.20;;;15.50;58.10;;;;;;7378186;19;20131;-72
2023/04/20 02:42:38;;;;;;;10.45;5.35;;;15.40;58.20;;;;;;7385370;19;19999;-72
2023/04/20 02:45:11;;;;;;;23.02;5.03;;;15.40;58.50;;;;;;7381737;19;20014;-72
2023/04/20 02:47:40;;;;;;;10.20;4.97;;;15.40;58.80;;;;;;7378404;19;20002;-71
2023/04/20 02:50:10;;;;;;;10.10;4.78;;;15.50;58.90;;;;;;7399984;19;20003;-71
2023/04/20 02:52:39;;;;;;;11.00;5.20;;;15.40;58.70;;;;;;7377683;19;20361;-71
2023/04/20 02:55:08;;;;;;;12.07;5.10;;;15.40;58.30;;;;;;7376952;19;20015;-71
2023/04/20 02:57:37;;;;;;;11.70;5.03;;;15.40;58.60;;;;;;7377685;19;20018;-71
2023/04/20 03:00:12;;;;;;;14.02;5.13;;;15.40;59.00;;;;;;7377214;19;20007;-72
2023/04/20 03:02:41;;;;;;;11.32;4.45;;;15.40;59.00;;;;;;7375841;19;20019;-71
2023/04/20 03:05:11;;;;;;;8.00;4.82;;;15.40;58.90;;;;;;7398972;19;20394;-71
2023/04/20 03:07:39;;;;;;;11.43;4.45;;;15.40;59.00;;;;;;7376536;19;20011;-71
2023/04/20 03:10:10;;;;;;;14.90;4.53;;;15.40;58.90;;;;;;7376515;19;20003;-72
2023/04/20 03:12:39;;;;;;;6.80;4.18;;;15.40;59.00;;;;;;7377116;19;20003;-71
2023/04/20 03:15:12;;;;;;;9.68;4.03;;;15.30;58.50;;;;;;7377149;19;20092;-72
2023/04/20 03:17:40;;;;;;;7.55;4.18;;;15.20;58.50;;;;;;7376246;19;20011;-71
2023/04/20 03:20:10;;;;;;;8.52;4.15;;;15.20;58.70;;;;;;7398743;19;20015;-72
2023/04/20 03:22:41;;;;;;;7.45;4.07;;;15.20;58.90;;;;;;7378817;19;20058;-71
2023/04/20 03:25:10;;;;;;;5.57;3.60;;;15.20;58.80;;;;;;7385429;19;20024;-71
2023/04/20 03:27:39;;;;;;;7.60;4.07;;;15.10;58.70;;;;;;7384481;19;20005;-71
2023/04/20 03:30:12;;;;;;;7.65;4.05;;;15.10;58.70;;;;;;7382621;19;20007;-71
2023/04/20 03:32:41;;;;;;;19.63;4.28;;;15.00;58.90;;;;;;7385073;19;20011;-71
2023/04/20 03:35:10;;;;;;;11.25;3.92;;;15.00;58.80;;;;;;7405220;19;20414;-71
2023/04/20 03:37:39;;;;;;;9.05;4.03;;;15.00;58.80;;;;;;7385106;19;20013;-71
2023/04/20 03:40:11;;;;;;;4.28;3.20;;;14.90;58.50;;;;;;7385348;19;20010;-71
2023/04/20 03:42:40;;;;;;;6.55;3.13;;;14.90;58.70;;;;;;7385958;19;20003;-72
2023/04/20 03:45:12;;;;;;;6.15;3.50;;;14.80;58.90;;;;;;7382499;19;20369;-72
2023/04/20 03:47:41;;;;;;;5.47;3.45;;;14.70;58.90;;;;;;7377504;19;20066;-72
2023/04/20 03:50:10;;;;;;;6.00;3.28;;;14.70;59.30;;;;;;7398718;19;20019;-72
2023/04/20 03:52:39;;;;;;;7.47;3.33;;;14.80;59.20;;;;;;7382720;19;19998;-72
2023/04/20 03:55:09;;;;;;;7.47;3.38;;;14.80;58.90;;;;;;7383736;19;20266;-71
2023/04/20 03:57:39;;;;;;;6.53;3.15;;;14.90;58.80;;;;;;7383894;19;20003;-72
2023/04/20 04:00:12;;;;;;;8.55;3.75;;;14.80;58.80;;;;;;7382273;19;20020;-72
2023/04/20 04:02:41;;;;;;;10.75;3.40;;;14.90;58.90;;;;;;7381691;19;20013;-72
2023/04/20 04:05:10;;;;;;;6.45;3.90;;;14.80;58.60;;;;;;7402416;19;20019;-72
2023/04/20 04:07:39;;;;;;;7.65;3.60;;;14.80;58.50;;;;;;7382278;19;19999;-72
2023/04/20 04:10:09;;;;;;;5.45;3.13;;;14.80;58.40;;;;;;7382143;19;20054;-72
2023/04/20 04:12:38;;;;;;;12.60;3.97;;;14.70;58.70;;;;;;7383250;19;20023;-71
2023/04/20 04:15:08;;;;;;;5.88;3.30;;;14.70;58.60;;;;;;7381210;19;20600;-71
2023/04/20 04:17:39;;;;;;;5.45;3.45;;;14.70;58.80;;;;;;7383281;19;20118;-72
2023/04/20 04:20:10;;;;;;;;;;;14.70;58.80;;;;;;7404320;19;20252;-71
2023/04/20 04:22:38;;;;;;;10.70;3.28;;;14.70;58.80;;;;;;7385462;19;19936;-72
2023/04/20 04:25:09;;;;;;;9.93;3.55;;;14.70;58.90;;;;;;7381218;19;20082;-72
2023/04/20 04:27:38;;;;;;;6.07;3.75;;;14.80;58.80;;;;;;7382284;19;20017;-72
2023/04/20 04:30:10;;;;;;;11.10;3.60;;;14.70;58.70;;;;;;7381944;19;20003;-72
2023/04/20 04:32:41;;;;;;;5.18;2.75;;;14.70;58.60;;;;;;7383864;19;20069;-72
2023/04/20 04:35:11;;;;;;;8.63;3.38;;;14.70;58.40;;;;;;7403492;19;20069;-72
2023/04/20 04:37:41;;;;;;;5.78;3.40;;;14.60;58.30;;;;;;7381942;19;20005;-72
2023/04/20 04:40:11;;;;;;;5.03;3.17;;;14.60;58.50;;;;;;7381575;19;20079;-72
2023/04/20 04:42:40;;;;;;;5.30;3.10;;;14.60;58.40;;;;;;7381676;19;20002;-72
2023/04/20 04:45:10;;;;;;;5.32;3.05;;;14.60;58.40;;;;;;7380865;19;20003;-72
2023/04/20 04:47:42;;;;;;;9.25;3.60;;;14.50;58.40;;;;;;7382909;19;20842;-72
2023/04/20 04:50:12;;;;;;;12.60;3.33;;;14.50;58.50;;;;;;7404725;19;20007;-72
2023/04/20 04:52:41;;;;;;;9.25;3.55;;;14.50;58.50;;;;;;7382299;19;20035;-72
2023/04/20 04:55:10;;;;;;;8.88;3.53;;;14.40;58.50;;;;;;7381333;19;20382;-72
2023/04/20 04:57:39;;;;;;;10.57;3.70;;;14.40;58.80;;;;;;7381513;19;20013;-72
2023/04/20 05:00:11;;;;;;;8.30;3.20;;;14.40;58.70;;;;;;7383354;19;19999;-72
2023/04/20 05:02:42;;;;;;;;;;;14.40;58.80;;;;;;7392124;19;20015;-72
2023/04/20 05:05:11;;;;;;;12.20;4.07;;;14.40;58.70;;;;;;7403503;19;19987;-72
2023/04/20 05:07:42;;;;;;;7.03;3.08;;;14.40;58.50;;;;;;7380853;19;20210;-72
2023/04/20 05:10:11;;;;;;;9.05;3.83;;;14.30;58.60;;;;;;7380609;19;20066;-72
2023/04/20 05:12:40;;;;;;;6.53;3.25;;;14.20;58.40;;;;;;7380262;19;20007;-72
2023/04/20 05:15:10;;;;;;;7.90;3.50;;;14.30;58.60;;;;;;7380714;19;20023;-72
2023/04/20 05:17:41;;;;;;;7.00;3.78;;;14.30;58.60;;;;;;7381009;19;20104;-72
2023/04/20 05:20:11;;;;;;;5.97;3.20;;;14.30;58.60;;;;;;7401065;19;20355;-72
2023/04/20 05:22:40;;;;;;;8.52;3.67;;;14.30;58.30;;;;;;7379745;19;20002;-72
2023/04/20 05:25:10;;;;;;;6.18;3.53;;;14.20;57.80;;;;;;7379328;19;20010;-72
2023/04/20 05:27:39;;;;;;;7.45;3.60;;;14.10;58.00;;;;;;7381083;19;20305;-72
2023/04/20 05:30:09;;;;;;;7.57;3.75;;;14.00;58.30;;;;;;7380891;19;20002;-72
2023/04/20 05:32:38;;;;;;;14.55;3.60;;;14.10;58.60;;;;;;7380568;19;20003;-72
2023/04/20 05:35:10;;;;;;;8.32;3.92;;;14.10;58.60;;;;;;7401212;19;20594;-72
2023/04/20 05:37:39;;;;;;;8.93;3.28;;;14.00;57.60;;;;;;7379335;19;20362;-72
2023/04/20 05:40:10;;;;;;;14.52;3.85;;;14.10;57.90;;;;;;7381115;19;20011;-72
2023/04/20 05:42:38;;;;;;;9.82;3.88;;;14.10;58.30;;;;;;7382217;19;20238;-72
2023/04/20 05:45:08;;;;;;;5.50;3.85;;;14.10;57.60;;;;;;7381170;19;20023;-71
2023/04/20 05:47:37;;;;;;;10.15;3.72;;;14.20;57.90;;;;;;7379025;19;20249;-72
2023/04/20 05:50:09;;;;;;;11.45;4.22;;;14.20;57.90;;;;;;7402315;19;20032;-73
2023/04/20 05:52:38;;;;;;;10.48;3.75;;;14.20;58.00;;;;;;7379763;19;19999;-72
2023/04/20 05:55:08;;;;;;;9.05;3.80;;;14.30;57.90;;;;;;7380315;19;20280;-72
2023/04/20 05:57:41;;;;;;;12.70;3.67;;;14.30;57.80;;;;;;7380512;19;20037;-72
2023/04/20 06:00:11;;;;;;;5.28;3.55;;;14.30;57.50;;;;;;7380393;19;20263;-72
2023/04/20 06:02:40;;;;;;;15.77;4.22;;;14.40;57.40;;;;;;7380985;19;20013;-72
2023/04/20 06:05:12;;;;;;;8.63;3.95;;;14.40;57.90;;;;;;7400565;19;20010;-71
2023/04/20 06:07:41;;;;;;;6.88;3.70;;;14.30;57.00;;;;;;7378313;19;20007;-72
2023/04/20 06:10:11;;;;;;;8.45;4.07;;;14.40;57.30;;;;;;7378472;19;20070;-72
2023/04/20 06:12:39;;;;;;;7.18;3.75;;;14.50;57.50;;;;;;7379118;19;20024;-71
2023/04/20 06:15:10;;;;;;;5.80;3.65;;;14.40;56.90;;;;;;7381148;19;20013;-71
2023/04/20 06:17:39;;;;;;;7.72;3.58;;;14.50;57.00;;;;;;7378449;19;19996;-71
2023/04/20 06:20:12;;;;;;;14.75;4.72;;;14.40;56.90;;;;;;7400254;19;20271;-71
2023/04/20 06:22:45;;;;;;;13.18;4.07;;;14.40;57.00;;;;;;7379078;19;19999;-71
2023/04/20 06:25:14;;;;;;;8.73;4.00;;;14.50;56.60;;;;;;7377930;19;20013;-71
2023/04/20 06:27:43;;;;;;;7.35;4.50;;;14.50;56.60;;;;;;7378875;19;20007;-71
2023/04/20 06:30:12;;;;;;;7.57;3.83;;;14.50;56.70;;;;;;7378420;19;20011;-71
2023/04/20 06:32:41;;;;;;;16.45;3.97;;;14.50;56.50;;;;;;7379471;19;20023;-72
2023/04/20 06:35:12;;;;;;;10.07;3.97;;;14.60;56.40;;;;;;7400316;19;20018;-71
2023/04/20 06:37:41;;;;;;;;;;;14.60;56.60;;;;;;7378838;19;20016;-71
2023/04/20 06:40:10;;;;;;;17.48;7.65;;;14.70;56.40;;;;;;7377931;19;20172;-72
2023/04/20 06:42:39;;;;;;;14.60;6.22;;;14.70;56.20;;;;;;7378165;19;20006;-71
2023/04/20 06:45:10;;;;;;;9.32;5.07;;;14.80;56.40;;;;;;7378486;19;20012;-72
2023/04/20 06:47:39;;;;;;;10.53;4.87;;;14.80;56.20;;;;;;7378426;19;20371;-72
2023/04/20 06:50:09;;;;;;;9.68;3.78;;;14.80;56.50;;;;;;7400030;19;20042;-72
2023/04/20 06:52:42;;;;;;;10.75;4.55;;;14.90;56.20;;;;;;7378243;19;20010;-71
2023/04/20 06:55:12;;;;;;;9.23;4.03;;;14.90;56.10;;;;;;7378606;19;20007;-71
2023/04/20 06:57:42;;;;;;;12.75;4.65;;;14.90;56.00;;;;;;7379520;19;20002;-73
2023/04/20 07:00:13;;;;;;;12.27;4.40;;;15.00;56.20;;;;;;7384509;19;19999;-74
2023/04/20 07:02:45;;;;;;;7.03;4.47;;;15.00;56.10;;;;;;7385901;19;20011;-74
2023/04/20 07:05:14;;;;;;;8.23;4.00;;;15.00;55.90;;;;;;7403838;19;20238;-74
2023/04/20 07:07:46;;;;;;;9.60;4.53;;;15.00;55.80;;;;;;7384607;19;20075;-73
2023/04/20 07:10:16;;;;;;;9.80;4.72;;;15.00;55.70;;;;;;7386109;19;20007;-73
2023/04/20 07:12:46;;;;;;;8.85;4.18;;;15.00;55.80;;;;;;7386285;19;20013;-74
2023/04/20 07:15:15;;;;;;;9.18;4.85;;;15.10;56.00;;;;;;7387794;19;20003;-74
2023/04/20 07:17:44;;;;;;;11.80;5.28;;;15.10;56.30;;;;;;7387180;19;20006;-74
2023/04/20 07:20:13;;;;;;;8.70;4.50;;;15.20;55.80;;;;;;7425163;19;20034;-72
2023/04/20 07:22:45;;;;;;;10.40;4.47;;;15.00;55.40;;;;;;7390644;19;20441;-74
2023/04/20 07:25:14;;;;;;;12.68;5.15;;;15.10;55.70;;;;;;7383586;19;20010;-72
2023/04/20 07:27:43;;;;;;;10.00;4.95;;;15.20;55.80;;;;;;7384124;19;20424;-72
2023/04/20 07:30:13;;;;;;;7.53;4.32;;;15.20;55.70;;;;;;7384463;19;20014;-72
2023/04/20 07:32:42;;;;;;;10.43;4.90;;;15.00;54.80;;;;;;7383811;19;20050;-73
2023/04/20 07:35:12;;;;;;;10.13;4.93;;;15.00;55.40;;;;;;7402570;19;20010;-71
2023/04/20 07:37:40;;;;;;;10.82;5.13;;;15.00;55.90;;;;;;7382634;19;20062;-71
2023/04/20 07:40:13;;;;;;;16.40;5.65;;;15.00;56.10;;;;;;7382498;19;20007;-72
2023/04/20 07:42:41;;;;;;;16.20;5.47;;;15.00;55.60;;;;;;7383404;19;20002;-72
2023/04/20 07:45:12;;;;;;;16.48;6.10;;;15.00;55.90;;;;;;7381978;19;20011;-73
2023/04/20 07:47:42;;;;;;;11.95;5.45;;;15.10;56.80;;;;;;7381210;19;20015;-72
2023/04/20 07:50:13;;;;;;;9.40;5.67;;;15.00;55.90;;;;;;7402873;19;20066;-74
2023/04/20 07:52:43;;;;;;;9.52;5.22;;;15.00;55.90;;;;;;7382846;19;20015;-72
2023/04/20 07:55:16;;;;;;;13.18;5.20;;;15.10;56.40;;;;;;7382714;19;20097;-74
2023/04/20 07:57:44;;;;;;;12.07;5.53;;;15.00;56.30;;;;;;7383330;19;20021;-74
2023/04/20 08:00:15;;;;;;;20.13;5.50;;;14.90;57.00;;;;;;7381619;19;20002;-74
2023/04/20 08:02:43;;;;;;;20.60;5.78;;;14.90;56.70;;;;;;7384810;19;20010;-72
2023/04/20 08:05:12;;;;;;;14.00;6.07;;;14.90;56.80;;;;;;7407311;19;20028;-73
2023/04/20 08:07:41;;;;;;;13.70;5.05;;;15.00;57.20;;;;;;7385921;19;20003;-74
2023/04/20 08:10:11;;;;;;;13.40;5.55;;;15.00;57.10;;;;;;7384979;19;20023;-76
2023/04/20 08:12:42;;;;;;;10.05;5.63;;;15.00;56.40;;;;;;7383471;19;20003;-74
2023/04/20 08:15:13;;;;;;;17.10;5.60;;;14.90;56.60;;;;;;7383291;19;20287;-74
2023/04/20 08:17:43;;;;;;;10.57;5.28;;;15.00;57.00;;;;;;7381691;19;20106;-72
2023/04/20 08:20:12;;;;;;;9.55;4.95;;;15.10;56.90;;;;;;7404738;19;20022;-72
2023/04/20 08:22:41;;;;;;;10.85;4.90;;;15.20;56.80;;;;;;7382677;19;20015;-72
2023/04/20 08:25:10;;;;;;;12.20;4.95;;;14.90;55.70;;;;;;7382795;19;20010;-74
2023/04/20 08:27:42;;;;;;;24.65;5.70;;;14.90;56.40;;;;;;7383638;19;20283;-73
2023/04/20 08:30:11;;;;;;;13.68;5.65;;;14.70;56.20;;;;;;7382413;19;20066;-74
2023/04/20 08:32:40;;;;;;;9.68;5.65;;;14.70;57.00;;;;;;7382216;19;20225;-74
2023/04/20 08:35:09;;;;;;;10.95;5.55;;;14.90;57.20;;;;;;7403567;19;20456;-74
2023/04/20 08:37:38;;;;;;;14.65;5.72;;;15.00;57.20;;;;;;7381459;19;20019;-73
2023/04/20 08:40:08;;;;;;;22.48;5.93;;;15.10;56.90;;;;;;7381378;19;20013;-73
2023/04/20 08:42:37;;;;;;;15.38;5.65;;;15.00;57.20;;;;;;7381927;19;20011;-74
2023/04/20 08:45:10;;;;;;;15.38;6.15;;;15.10;56.80;;;;;;7379561;19;20002;-73
2023/04/20 08:47:39;;;;;;;12.13;5.90;;;15.30;57.20;;;;;;7382143;19;20162;-75
2023/04/20 08:50:09;;;;;;;11.40;6.03;;;15.30;56.30;;;;;;7403262;19;20016;-74
2023/04/20 08:52:38;;;;;;;13.75;6.10;;;15.20;56.00;;;;;;7381017;19;20050;-75
2023/04/20 08:55:09;;;;;;;16.95;5.63;;;15.40;56.30;;;;;;7381115;19;19998;-73
2023/04/20 08:57:38;;;;;;;17.05;6.03;;;15.40;56.40;;;;;;7381384;19;20277;-75
2023/04/20 09:00:12;;;;;;;13.15;6.13;;;15.30;56.00;;;;;;7380550;19;20092;-74
2023/04/20 09:02:51;;;;;;;13.38;6.20;;;15.20;55.40;;;;;;7381062;19;20022;-73
2023/04/20 09:05:28;;;;;;;19.95;7.13;;;15.20;55.50;;;;;;7383530;19;20010;-74
2023/04/20 09:07:59;;;;;;;18.30;6.68;;;14.70;56.50;;;;;;7405853;19;20007;-73
2023/04/20 09:10:41;;;;;;;14.50;6.55;;;14.70;56.10;;;;;;7384760;19;20070;-73
2023/04/20 09:13:10;;;;;;;;;;;14.90;56.80;;;;;;7382204;19;20433;-73
2023/04/20 09:15:41;;;;;;;17.65;6.72;;;15.20;56.90;;;;;;7382270;19;19911;-73
2023/04/20 09:18:14;;;;;;;16.45;6.85;;;15.10;55.20;;;;;;7383767;19;20027;-73
2023/04/20 09:20:43;;;;;;;15.57;6.18;;;15.20;54.80;;;;;;7382073;19;20003;-72
2023/04/20 09:23:13;;;;;;;13.90;7.22;;;15.20;55.10;;;;;;7400971;19;20010;-72
2023/04/20 09:25:43;;;;;;;13.57;6.50;;;15.10;54.50;;;;;;7379387;19;20003;-73
2023/04/20 09:28:12;;;;;;;17.08;6.57;;;15.20;54.90;;;;;;7380929;19;20006;-72
2023/04/20 09:30:45;;;;;;;16.75;6.53;;;15.10;54.40;;;;;;7381447;19;20017;-73
2023/04/20 09:33:14;;;;;;;16.70;6.60;;;14.90;54.30;;;;;;7381919;19;20014;-73
2023/04/20 09:35:44;;;;;;;13.52;7.00;;;15.10;55.60;;;;;;7384914;19;20062;-72
2023/04/20 09:38:17;;;;;;;20.88;6.97;;;15.00;55.30;;;;;;7410817;19;20002;-72
2023/04/20 09:40:46;;;;;;;13.10;6.30;;;15.10;55.70;;;;;;7383189;19;20232;-73
2023/04/20 09:43:19;;;;;;;13.20;6.35;;;15.20;55.90;;;;;;7381498;19;20003;-73
2023/04/20 09:45:51;;;;;;;20.77;6.45;;;15.10;56.00;;;;;;7379800;19;20003;-75
2023/04/20 09:48:21;;;;;;;;;;;15.00;55.80;;;;;;7381712;19;20014;-76
2023/04/20 09:50:50;;;;;;;17.38;7.00;;;15.30;56.20;;;;;;7379057;19;19910;-76
2023/04/20 09:53:19;;;;;;;16.92;6.18;;;15.40;55.80;;;;;;7401821;19;20006;-75
2023/04/20 09:55:49;;;;;;;10.90;6.43;;;15.10;55.90;;;;;;7378894;19;20006;-73
2023/04/20 09:58:20;;;;;;;13.68;6.10;;;15.30;56.30;;;;;;7379465;19;20073;-74
2023/04/20 10:00:54;;;;;;;;;;;15.00;55.70;;;;;;7381815;19;19998;-73
2023/04/20 10:03:24;;;;;;;15.57;6.40;;;15.00;56.30;;;;;;7382826;19;19907;-74
2023/04/20 10:05:55;;;;;;;12.73;6.32;;;14.60;54.50;;;;;;7383589;19;20403;-76
2023/04/20 10:08:24;;;;;;;20.33;6.10;;;14.30;54.60;;;;;;7380524;19;20661;-77
2023/04/20 10:10:56;;;;;;;12.50;5.80;;;14.40;55.50;;;;;;7400279;19;20058;-76
2023/04/20 10:13:39;;;;;;;17.33;6.40;;;14.60;56.60;;;;;;7379082;19;20019;-74
2023/04/20 10:16:19;;;;;;;16.60;5.88;;;14.70;55.30;;;;;;7378011;19;20305;-74
2023/04/20 10:19:02;;;;;;;14.80;5.07;;;14.60;55.10;;;;;;7379236;19;20005;-73
2023/04/20 10:21:31;;;;;;;13.20;5.30;;;15.00;56.00;;;;;;7378026;19;20358;-73
2023/04/20 10:24:02;;;;;;;10.07;5.18;;;15.30;56.30;;;;;;7379101;19;20159;-72
2023/04/20 10:26:39;;;;;;;12.70;5.53;;;15.40;56.40;;;;;;7377596;19;20003;-73
2023/04/20 10:29:08;;;;;;;15.18;6.03;;;15.70;56.40;;;;;;7400490;19;20009;-72
2023/04/20 10:31:43;;;;;;;10.52;5.03;;;15.60;55.70;;;;;;7379740;19;20006;-73
2023/04/20 10:34:12;;;;;;;17.38;6.03;;;15.60;56.80;;;;;;7382609;19;20013;-73
2023/04/20 10:36:41;;;;;;;13.20;6.30;;;15.80;57.00;;;;;;7385582;19;20513;-72
2023/04/20 10:39:17;;;;;;;11.32;6.40;;;15.80;56.20;;;;;;7386169;19;20003;-72
2023/04/20 10:41:57;;;;;;;9.80;5.30;;;15.50;56.80;;;;;;7383921;19;19998;-73
2023/04/20 10:44:26;;;;;;;22.98;6.30;;;15.70;57.20;;;;;;7383044;19;20011;-73
2023/04/20 10:46:57;;;;;;;11.38;5.80;;;15.80;56.70;;;;;;7406063;19;20014;-73
2023/04/20 10:49:31;;;;;;;16.73;6.25;;;16.00;57.00;;;;;;7387025;19;20002;-74
2023/04/20 10:52:00;;;;;;;10.48;6.22;;;16.00;55.80;;;;;;7387658;19;20007;-72
2023/04/20 10:54:28;;;;;;;13.88;6.38;;;15.80;56.10;;;;;;7386742;19;19999;-73
2023/04/20 10:56:57;;;;;;;12.90;6.20;;;15.80;57.60;;;;;;7385675;19;20010;-73
2023/04/20 10:59:26;;;;;;;12.48;5.38;;;15.70;56.70;;;;;;7386941;19;20010;-72
2023/04/20 11:02:00;;;;;;;16.77;5.88;;;15.50;56.60;;;;;;7406421;19;20277;-73
2023/04/20 11:04:32;;;;;;;13.45;5.20;;;15.20;57.20;;;;;;7387265;19;20002;-73
2023/04/20 11:07:07;;;;;;;14.25;5.30;;;15.50;58.10;;;;;;7383149;19;20003;-73
2023/04/20 11:09:37;;;;;;;13.98;5.82;;;15.00;57.70;;;;;;7385231;19;20066;-73
2023/04/20 11:12:07;;;;;;;19.35;7.72;;;15.10;57.90;;;;;;7383369;19;20006;-72
2023/04/20 11:14:39;;;;;;;78.03;22.95;;;14.70;58.80;;;;;;7382709;19;20027;-74
2023/04/20 11:17:11;;;;;;;46.65;12.40;;;14.80;58.90;;;;;;7406642;19;20015;-75
2023/04/20 11:19:40;;;;;;;14.27;5.97;;;14.90;59.30;;;;;;7383951;19;20015;-77
2023/04/20 11:22:08;;;;;;;10.90;5.93;;;15.10;59.20;;;;;;7385493;19;20439;-77
2023/04/20 11:24:40;;;;;;;13.20;6.43;;;15.30;59.10;;;;;;7384205;19;20402;-78
2023/04/20 11:27:20;;;;;;;12.80;6.47;;;15.30;59.50;;;;;;7385154;19;20010;-78
2023/04/20 11:29:58;;;;;;;18.08;6.78;;;15.40;59.40;;;;;;7385064;19;20026;-76
2023/04/20 11:32:31;;;;;;;15.27;6.53;;;15.50;60.00;;;;;;7387493;19;20042;-78
2023/04/20 11:35:01;;;;;;;14.48;6.38;;;15.70;59.40;;;;;;7408082;19;20011;-77
2023/04/20 11:37:31;;;;;;;15.73;6.43;;;15.80;59.00;;;;;;7383738;19;19998;-77
2023/04/20 11:40:04;;;;;;;17.13;6.75;;;16.00;59.00;;;;;;7383361;19;20559;-76
2023/04/20 11:42:36;;;;;;;23.83;7.65;;;15.70;58.70;;;;;;7385454;19;20015;-76
2023/04/20 11:45:05;;;;;;;11.32;6.82;;;15.90;58.80;;;;;;7386762;19;20007;-77
2023/04/20 11:47:40;;;;;;;22.83;7.05;;;16.00;58.60;;;;;;7385624;19;20031;-78
2023/04/20 11:50:10;;;;;;;14.98;6.40;;;16.10;59.00;;;;;;7407421;19;20058;-74
2023/04/20 11:52:40;;;;;;;17.42;6.95;;;16.20;58.90;;;;;;7385731;19;20010;-76
2023/04/20 11:55:10;;;;;;;14.07;7.00;;;16.10;58.40;;;;;;7398168;19;20006;-76
2023/04/20 11:57:38;;;;;;;14.95;7.22;;;16.20;58.30;;;;;;7396606;19;20006;-77
2023/04/20 12:00:11;;;;;;;17.38;7.15;;;15.80;57.70;;;;;;7395743;19;20020;-74
2023/04/20 12:02:43;;;;;;;18.20;6.82;;;15.50;58.20;;;;;;7390134;19;20003;-77
2023/04/20 12:05:12;;;;;;;15.13;7.13;;;15.40;58.60;;;;;;7407776;19;20026;-77
2023/04/20 12:07:42;;;;;;;16.52;7.63;;;15.40;58.80;;;;;;7382827;19;20371;-77
2023/04/20 12:10:14;;;;;;;16.75;6.70;;;15.50;59.30;;;;;;7383203;19;20006;-75
2023/04/20 12:12:42;;;;;;;14.90;7.43;;;15.60;58.70;;;;;;7383511;19;20003;-74
2023/04/20 12:15:12;;;;;;;14.77;6.57;;;15.30;58.00;;;;;;7383756;19;20009;-74
2023/04/20 12:17:43;;;;;;;17.05;7.50;;;15.40;58.90;;;;;;7383300;19;20068;-74
2023/04/20 12:20:13;;;;;;;12.38;6.97;;;15.30;58.90;;;;;;7403936;19;20020;-74
2023/04/20 12:22:42;;;;;;;12.88;7.80;;;15.30;58.90;;;;;;7382237;19;20007;-75
2023/04/20 12:25:11;;;;;;;18.75;7.40;;;15.30;58.90;;;;;;7382258;19;20020;-74
2023/04/20 12:27:40;;;;;;;19.38;7.72;;;15.10;59.20;;;;;;7381627;19;20360;-74
2023/04/20 12:30:10;;;;;;;16.92;7.63;;;15.10;59.90;;;;;;7382879;19;20079;-73
2023/04/20 12:32:40;;;;;;;19.97;7.67;;;15.00;60.10;;;;;;7382698;19;20245;-75
2023/04/20 12:35:12;;;;;;;21.60;7.82;;;14.70;60.30;;;;;;7403014;19;20066;-76
2023/04/20 12:37:40;;;;;;;;;;;14.80;61.10;;;;;;7382201;19;20586;-76
2023/04/20 12:40:10;;;;;;;9.70;6.38;;;15.30;61.60;;;;;;7381924;19;19918;-76
2023/04/20 12:42:39;;;;;;;9.05;6.47;;;15.50;60.40;;;;;;7381757;19;20049;-75
2023/04/20 12:45:11;;;;;;;11.77;6.63;;;15.70;60.20;;;;;;7382766;19;20078;-76
2023/04/20 12:47:40;;;;;;;12.85;7.32;;;15.80;59.20;;;;;;7380614;19;20395;-74
2023/04/20 12:50:13;;;;;;;16.15;7.40;;;15.60;58.60;;;;;;7404668;19;20418;-75
2023/04/20 12:52:42;;;;;;;14.27;6.70;;;15.80;59.30;;;;;;7387118;19;20072;-74
2023/04/20 12:55:11;;;;;;;14.02;6.97;;;16.20;59.90;;;;;;7386711;19;20020;-75